createdAt,value
2018-10-16T00:00:16.029Z,13.70
2018-10-16T00:01:16.012Z,13.00
2018-10-16T00:02:16.032Z,12.50
2018-10-16T00:03:16.156Z,11.90
2018-10-16T00:04:16.022Z,12.50
2018-10-16T00:05:16.006Z,12.90
2018-10-16T00:06:16.007Z,12.00
2018-10-16T00:07:16.006Z,12.10
2018-10-16T00:08:16.018Z,11.80
2018-10-16T00:09:16.014Z,12.30
2018-10-16T00:10:16.002Z,11.90
2018-10-16T00:11:16.004Z,12.00
2018-10-16T00:12:16.002Z,11.60
2018-10-16T00:13:15.999Z,11.70
2018-10-16T00:14:15.998Z,12.00
2018-10-16T00:15:16.212Z,12.70
2018-10-16T00:16:16.205Z,12.80
2018-10-16T00:17:16.199Z,12.20
2018-10-16T00:18:15.997Z,12.00
2018-10-16T00:19:15.993Z,12.20
2018-10-16T00:20:16.210Z,12.90
2018-10-16T00:21:16.004Z,11.70
2018-10-16T00:22:16.003Z,12.40
2018-10-16T00:23:16.212Z,12.40
2018-10-16T00:24:16.003Z,12.30
2018-10-16T00:25:15.990Z,10.90
2018-10-16T00:26:16.013Z,11.60
2018-10-16T00:27:16.206Z,10.90
2018-10-16T00:28:16.190Z,10.40
2018-10-16T00:29:15.985Z,10.40
2018-10-16T00:30:16.000Z,11.40
2018-10-16T00:31:16.190Z,11.10
2018-10-16T00:32:15.999Z,11.90
2018-10-16T00:33:15.981Z,12.00
2018-10-16T00:34:16.193Z,12.80
2018-10-16T00:35:15.985Z,12.50
2018-10-16T00:36:16.198Z,13.20
2018-10-16T00:37:15.977Z,13.80
2018-10-16T00:38:15.985Z,13.10
2018-10-16T00:39:15.981Z,12.90
2018-10-16T00:40:15.984Z,12.90
2018-10-16T00:41:15.976Z,11.70
2018-10-16T00:42:15.979Z,12.10
2018-10-16T00:43:16.188Z,12.00
2018-10-16T00:44:15.985Z,12.10
2018-10-16T00:45:15.981Z,11.30
2018-10-16T00:46:15.970Z,11.70
2018-10-16T00:47:15.968Z,12.40
2018-10-16T00:48:15.988Z,11.70
2018-10-16T00:49:15.978Z,12.50
2018-10-16T00:50:16.176Z,12.70
2018-10-16T00:51:15.990Z,12.30
2018-10-16T00:52:15.965Z,12.80
2018-10-16T00:53:16.165Z,12.70
2018-10-16T00:54:15.979Z,12.90
2018-10-16T00:55:15.980Z,12.50
2018-10-16T00:56:15.971Z,11.60
2018-10-16T00:57:15.973Z,12.00
2018-10-16T00:58:15.971Z,12.60
2018-10-16T00:59:15.981Z,12.20
2018-10-16T01:00:15.964Z,11.80
2018-10-16T01:01:15.953Z,12.20
2018-10-16T01:02:15.981Z,12.20
2018-10-16T01:03:15.956Z,11.90
2018-10-16T01:04:15.980Z,11.30
2018-10-16T01:05:15.976Z,11.70
2018-10-16T01:06:15.948Z,11.10
2018-10-16T01:07:15.949Z,10.80
2018-10-16T01:08:15.953Z,10.60
2018-10-16T01:09:16.151Z,10.00
2018-10-16T01:10:16.161Z,10.90
2018-10-16T01:11:15.948Z,10.70
2018-10-16T01:12:15.943Z,11.10
2018-10-16T01:13:15.981Z,11.20
2018-10-16T01:14:15.941Z,11.20
2018-10-16T01:15:15.941Z,11.50
2018-10-16T01:16:15.951Z,11.50
2018-10-16T01:17:15.939Z,12.20
2018-10-16T01:18:16.138Z,12.20
2018-10-16T01:19:15.942Z,11.80
2018-10-16T01:20:16.134Z,11.60
2018-10-16T01:21:15.937Z,10.70
2018-10-16T01:22:15.943Z,10.70
2018-10-16T01:23:15.943Z,10.90
2018-10-16T01:24:15.932Z,11.10
2018-10-16T01:25:15.929Z,12.10
2018-10-16T01:26:15.941Z,12.30
2018-10-16T01:27:15.925Z,12.00
2018-10-16T01:28:16.125Z,11.50
2018-10-16T01:29:16.139Z,12.00
2018-10-16T01:30:15.924Z,12.30
2018-10-16T01:31:15.924Z,12.30
2018-10-16T01:32:16.123Z,12.80
2018-10-16T01:33:15.919Z,13.00
2018-10-16T01:34:15.918Z,12.10
2018-10-16T01:35:16.119Z,13.30
2018-10-16T01:36:15.918Z,13.30
2018-10-16T01:37:15.924Z,12.70
2018-10-16T01:38:15.916Z,13.50
2018-10-16T01:39:15.936Z,13.70
2018-10-16T01:40:15.921Z,13.70
2018-10-16T01:41:15.912Z,12.40
2018-10-16T01:42:16.113Z,13.10
2018-10-16T01:43:15.917Z,12.70
2018-10-16T01:44:15.907Z,13.20
2018-10-16T01:45:15.916Z,13.50
2018-10-16T01:46:15.904Z,13.40
2018-10-16T01:47:15.901Z,13.00
2018-10-16T01:48:15.914Z,13.10
2018-10-16T01:49:15.900Z,13.50
2018-10-16T01:50:15.902Z,14.10
2018-10-16T01:51:15.900Z,13.90
2018-10-16T01:52:15.897Z,13.00
2018-10-16T01:53:15.908Z,12.70
2018-10-16T01:54:15.895Z,12.20
2018-10-16T01:55:15.894Z,12.70
2018-10-16T01:56:15.908Z,12.50
2018-10-16T01:57:15.902Z,12.00
2018-10-16T01:58:15.893Z,11.50
2018-10-16T01:59:16.094Z,12.10
2018-10-16T02:00:16.092Z,12.40
2018-10-16T02:01:15.890Z,12.10
2018-10-16T02:02:15.888Z,11.80
2018-10-16T02:03:15.906Z,11.90
2018-10-16T02:04:15.899Z,12.60
2018-10-16T02:05:15.884Z,12.10
2018-10-16T02:06:15.883Z,12.30
2018-10-16T02:07:15.899Z,11.90
2018-10-16T02:08:15.900Z,12.10
2018-10-16T02:09:15.880Z,12.20
2018-10-16T02:10:15.893Z,11.40
2018-10-16T02:11:15.877Z,11.50
2018-10-16T02:12:16.081Z,12.20
2018-10-16T02:13:15.874Z,12.20
2018-10-16T02:14:16.087Z,11.80
2018-10-16T02:15:15.872Z,12.00
2018-10-16T02:16:15.875Z,12.10
2018-10-16T02:17:15.872Z,12.40
2018-10-16T02:18:16.076Z,11.40
2018-10-16T02:19:15.868Z,10.80
2018-10-16T02:20:16.073Z,12.20
2018-10-16T02:21:15.886Z,12.10
2018-10-16T02:22:16.093Z,12.50
2018-10-16T02:23:15.865Z,13.10
2018-10-16T02:24:15.874Z,13.00
2018-10-16T02:25:15.865Z,12.40
2018-10-16T02:26:16.064Z,13.00
2018-10-16T02:27:16.093Z,12.00
2018-10-16T02:28:15.870Z,12.80
2018-10-16T02:29:16.078Z,12.30
2018-10-16T02:30:16.062Z,12.20
2018-10-16T02:31:15.871Z,12.90
2018-10-16T02:32:15.858Z,11.80
2018-10-16T02:33:15.855Z,12.20
2018-10-16T02:34:15.869Z,12.00
2018-10-16T02:35:16.057Z,11.90
2018-10-16T02:36:16.065Z,12.40
2018-10-16T02:37:15.849Z,11.80
2018-10-16T02:38:15.867Z,11.00
2018-10-16T02:39:15.855Z,12.00
2018-10-16T02:40:15.863Z,11.20
2018-10-16T02:41:15.846Z,11.30
2018-10-16T02:42:16.062Z,11.80
2018-10-16T02:43:16.073Z,11.20
2018-10-16T02:44:15.844Z,12.30
2018-10-16T02:45:15.854Z,12.10
2018-10-16T02:46:15.868Z,12.00
2018-10-16T02:47:16.073Z,12.60
2018-10-16T02:48:15.852Z,12.30
2018-10-16T02:49:16.058Z,12.10
2018-10-16T02:50:15.848Z,12.20
2018-10-16T02:51:15.838Z,12.50
2018-10-16T02:52:15.837Z,13.30
2018-10-16T02:53:15.851Z,13.10
2018-10-16T02:54:15.844Z,13.60
2018-10-16T02:55:15.835Z,13.50
2018-10-16T02:56:16.037Z,13.50
2018-10-16T02:57:16.054Z,13.20
2018-10-16T02:58:15.841Z,13.10
2018-10-16T02:59:15.847Z,13.10
2018-10-16T03:00:15.841Z,12.60
2018-10-16T03:01:15.845Z,13.60
2018-10-16T03:02:15.848Z,13.30
2018-10-16T03:03:16.042Z,12.60
2018-10-16T03:04:15.835Z,12.90
2018-10-16T03:05:15.823Z,14.00
2018-10-16T03:06:15.822Z,13.40
2018-10-16T03:07:15.827Z,12.80
2018-10-16T03:08:15.833Z,13.10
2018-10-16T03:09:15.822Z,12.90
2018-10-16T03:10:15.884Z,13.60
2018-10-16T03:11:15.820Z,12.20
2018-10-16T03:12:15.829Z,12.50
2018-10-16T03:13:16.019Z,12.10
2018-10-16T03:14:15.815Z,12.40
2018-10-16T03:15:15.817Z,11.70
2018-10-16T03:16:15.875Z,11.50
2018-10-16T03:17:15.809Z,11.90
2018-10-16T03:18:16.066Z,12.20
2018-10-16T03:19:15.820Z,12.40
2018-10-16T03:20:15.836Z,11.80
2018-10-16T03:21:15.806Z,12.00
2018-10-16T03:22:15.807Z,12.40
2018-10-16T03:23:16.018Z,12.80
2018-10-16T03:24:15.816Z,13.50
2018-10-16T03:25:16.019Z,13.30
2018-10-16T03:26:15.799Z,13.70
2018-10-16T03:27:15.813Z,13.30
2018-10-16T03:28:16.021Z,13.90
2018-10-16T03:29:15.809Z,13.70
2018-10-16T03:30:15.807Z,13.40
2018-10-16T03:31:15.807Z,13.60
2018-10-16T03:32:15.806Z,13.40
2018-10-16T03:33:15.796Z,14.20
2018-10-16T03:34:15.818Z,13.30
2018-10-16T03:35:15.997Z,14.10
2018-10-16T03:36:16.005Z,13.40
2018-10-16T03:37:15.796Z,13.30
2018-10-16T03:38:15.795Z,13.10
2018-10-16T03:39:15.799Z,12.70
2018-10-16T03:40:15.804Z,12.90
2018-10-16T03:41:15.787Z,12.70
2018-10-16T03:42:15.784Z,12.70
2018-10-16T03:43:15.796Z,12.70
2018-10-16T03:44:15.787Z,13.50
2018-10-16T03:45:15.809Z,12.90
2018-10-16T03:46:15.993Z,13.60
2018-10-16T03:47:15.781Z,13.30
2018-10-16T03:48:15.790Z,13.00
2018-10-16T03:49:15.790Z,12.90
2018-10-16T03:50:15.804Z,13.60
2018-10-16T03:51:15.776Z,13.30
2018-10-16T03:52:15.778Z,13.50
2018-10-16T03:53:15.771Z,13.80
2018-10-16T03:54:15.785Z,14.00
2018-10-16T03:55:15.786Z,14.20
2018-10-16T03:56:15.774Z,13.70
2018-10-16T03:57:15.865Z,13.60
2018-10-16T03:58:15.768Z,13.40
2018-10-16T03:59:15.792Z,13.00
2018-10-16T04:00:15.779Z,13.00
2018-10-16T04:01:15.789Z,13.60
2018-10-16T04:02:15.768Z,13.10
2018-10-16T04:03:15.772Z,12.70
2018-10-16T04:04:15.976Z,13.40
2018-10-16T04:05:15.772Z,13.10
2018-10-16T04:06:15.775Z,13.60
2018-10-16T04:07:15.770Z,13.30
2018-10-16T04:08:15.782Z,13.70
2018-10-16T04:09:15.765Z,13.40
2018-10-16T04:10:15.758Z,13.60
2018-10-16T04:11:15.767Z,13.20
2018-10-16T04:12:15.771Z,13.50
2018-10-16T04:13:15.766Z,12.40
2018-10-16T04:14:15.775Z,13.60
2018-10-16T04:15:15.754Z,12.40
2018-10-16T04:16:15.765Z,12.00
2018-10-16T04:17:15.784Z,12.40
2018-10-16T04:18:15.750Z,13.00
2018-10-16T04:19:15.756Z,12.20
2018-10-16T04:20:15.750Z,13.60
2018-10-16T04:21:15.751Z,11.80
2018-10-16T04:22:15.772Z,12.00
2018-10-16T04:23:15.747Z,12.80
2018-10-16T04:24:15.745Z,12.80
2018-10-16T04:25:15.744Z,12.80
2018-10-16T04:26:15.762Z,12.00
2018-10-16T04:27:15.746Z,12.80
2018-10-16T04:28:15.944Z,12.80
2018-10-16T04:29:15.833Z,12.80
2018-10-16T04:30:15.755Z,12.50
2018-10-16T04:31:15.739Z,12.70
2018-10-16T04:32:15.753Z,12.90
2018-10-16T04:33:15.746Z,13.00
2018-10-16T04:34:15.739Z,13.00
2018-10-16T04:35:15.738Z,13.40
2018-10-16T04:36:15.739Z,13.50
2018-10-16T04:37:15.736Z,13.30
2018-10-16T04:38:15.738Z,14.00
2018-10-16T04:39:15.735Z,12.70
2018-10-16T04:40:15.738Z,13.10
2018-10-16T04:41:15.733Z,13.30
2018-10-16T04:42:15.734Z,13.20
2018-10-16T04:43:15.742Z,13.80
2018-10-16T04:44:15.730Z,13.30
2018-10-16T04:45:15.736Z,13.40
2018-10-16T04:46:15.727Z,13.60
2018-10-16T04:47:15.728Z,13.10
2018-10-16T04:48:15.736Z,13.10
2018-10-16T04:49:15.745Z,13.20
2018-10-16T04:50:15.726Z,13.70
2018-10-16T04:51:15.722Z,14.10
2018-10-16T04:52:15.730Z,14.30
2018-10-16T04:53:15.753Z,12.70
2018-10-16T04:54:15.720Z,13.00
2018-10-16T04:55:15.947Z,13.20
2018-10-16T04:56:15.928Z,12.60
2018-10-16T04:57:15.721Z,13.50
2018-10-16T04:58:15.719Z,13.00
2018-10-16T04:59:15.930Z,12.90
2018-10-16T05:00:15.719Z,13.10
2018-10-16T05:01:15.921Z,13.10
2018-10-16T05:02:15.727Z,12.80
2018-10-16T05:03:15.714Z,13.30
2018-10-16T05:04:15.756Z,13.50
2018-10-16T05:05:15.725Z,13.90
2018-10-16T05:06:15.714Z,13.80
2018-10-16T05:07:15.712Z,13.50
2018-10-16T05:08:15.715Z,13.40
2018-10-16T05:09:15.711Z,14.60
2018-10-16T05:10:15.711Z,14.00
2018-10-16T05:11:15.709Z,14.20
2018-10-16T05:12:15.714Z,14.00
2018-10-16T05:13:15.760Z,14.30
2018-10-16T05:14:15.718Z,13.90
2018-10-16T05:15:15.923Z,14.50
2018-10-16T05:16:15.959Z,14.30
2018-10-16T05:17:15.703Z,14.40
2018-10-16T05:18:15.704Z,13.20
2018-10-16T05:19:15.831Z,14.30
2018-10-16T05:20:15.706Z,13.10
2018-10-16T05:21:15.700Z,14.00
2018-10-16T05:22:15.720Z,13.10
2018-10-16T05:23:15.703Z,13.80
2018-10-16T05:24:15.699Z,13.40
2018-10-16T05:25:15.702Z,14.00
2018-10-16T05:26:15.899Z,13.00
2018-10-16T05:27:15.708Z,12.90
2018-10-16T05:28:15.708Z,13.10
2018-10-16T05:29:15.694Z,12.50
2018-10-16T05:30:15.915Z,12.30
2018-10-16T05:31:15.806Z,12.90
2018-10-16T05:32:15.707Z,13.30
2018-10-16T05:33:15.706Z,12.30
2018-10-16T05:34:15.690Z,12.60
2018-10-16T05:35:15.691Z,12.10
2018-10-16T05:36:15.693Z,12.90
2018-10-16T05:37:15.690Z,13.30
2018-10-16T05:38:15.701Z,12.90
2018-10-16T05:39:16.040Z,13.60
2018-10-16T05:40:15.686Z,13.30
2018-10-16T05:41:15.696Z,14.20
2018-10-16T05:42:15.888Z,13.90
2018-10-16T05:43:15.695Z,14.80
2018-10-16T05:44:15.697Z,14.60
2018-10-16T05:45:15.684Z,14.70
2018-10-16T05:46:15.682Z,14.40
2018-10-16T05:47:15.883Z,15.30
2018-10-16T05:48:15.679Z,14.40
2018-10-16T05:49:15.689Z,14.10
2018-10-16T05:50:15.679Z,13.50
2018-10-16T05:51:15.675Z,14.30
2018-10-16T05:52:15.879Z,13.70
2018-10-16T05:53:15.689Z,14.00
2018-10-16T05:54:15.729Z,14.70
2018-10-16T05:55:15.907Z,14.10
2018-10-16T05:56:15.690Z,13.20
2018-10-16T05:57:15.874Z,14.20
2018-10-16T05:58:15.683Z,14.30
2018-10-16T05:59:15.684Z,13.30
2018-10-16T06:00:15.681Z,14.60
2018-10-16T06:01:15.704Z,12.70
2018-10-16T06:02:15.687Z,13.40
2018-10-16T06:03:15.693Z,13.20
2018-10-16T06:04:15.671Z,13.00
2018-10-16T06:05:15.664Z,13.50
2018-10-16T06:06:15.867Z,12.90
2018-10-16T06:07:15.676Z,12.00
2018-10-16T06:08:15.688Z,11.60
2018-10-16T06:09:15.674Z,12.60
2018-10-16T06:10:15.673Z,12.60
2018-10-16T06:11:15.678Z,12.80
2018-10-16T06:12:15.799Z,12.80
2018-10-16T06:13:15.657Z,12.50
2018-10-16T06:14:15.675Z,12.40
2018-10-16T06:15:15.687Z,13.20
2018-10-16T06:16:15.667Z,13.90
2018-10-16T06:17:15.686Z,14.10
2018-10-16T06:18:15.667Z,13.70
2018-10-16T06:19:15.665Z,13.70
2018-10-16T06:20:15.655Z,13.60
2018-10-16T06:21:15.870Z,14.10
2018-10-16T06:22:15.666Z,13.60
2018-10-16T06:23:15.654Z,14.00
2018-10-16T06:24:15.670Z,13.20
2018-10-16T06:25:15.649Z,14.10
2018-10-16T06:26:15.657Z,13.50
2018-10-16T06:27:15.667Z,14.20
2018-10-16T06:28:15.855Z,13.50
2018-10-16T06:29:15.674Z,13.30
2018-10-16T06:30:15.724Z,13.20
2018-10-16T06:31:15.670Z,12.80
2018-10-16T06:32:15.658Z,12.90
2018-10-16T06:34:15.644Z,13.30
2018-10-16T06:35:15.651Z,12.90
2018-10-16T06:36:15.642Z,12.60
2018-10-16T06:37:15.642Z,12.60
2018-10-16T06:38:15.640Z,12.60
2018-10-16T06:39:15.641Z,13.30
2018-10-16T06:40:15.644Z,13.00
2018-10-16T06:41:15.675Z,13.50
2018-10-16T06:42:15.843Z,13.50
2018-10-16T06:43:15.641Z,14.30
2018-10-16T06:44:15.637Z,13.90
2018-10-16T06:45:15.649Z,14.50
2018-10-16T06:46:15.906Z,13.30
2018-10-16T06:47:15.667Z,14.00
2018-10-16T06:48:16.046Z,13.70
2018-10-16T06:49:15.689Z,13.60
2018-10-16T06:50:15.633Z,12.50
2018-10-16T06:51:15.648Z,13.60
2018-10-16T06:52:15.639Z,13.50
2018-10-16T06:53:15.693Z,13.40
2018-10-16T06:54:15.833Z,14.00
2018-10-16T06:55:15.767Z,13.20
2018-10-16T06:56:15.646Z,13.40
2018-10-16T06:57:15.631Z,14.10
2018-10-16T06:58:15.631Z,13.70
2018-10-16T06:59:15.629Z,13.60
2018-10-16T07:00:15.907Z,14.20
2018-10-16T07:01:15.626Z,14.00
2018-10-16T07:02:15.628Z,13.00
2018-10-16T07:03:15.626Z,12.90
2018-10-16T07:04:15.628Z,13.90
2018-10-16T07:05:15.624Z,14.40
2018-10-16T07:06:15.626Z,15.20
2018-10-16T07:07:16.045Z,14.80
2018-10-16T07:08:15.625Z,14.50
2018-10-16T07:09:15.642Z,14.20
2018-10-16T07:10:15.622Z,14.50
2018-10-16T07:11:15.848Z,15.60
2018-10-16T07:12:15.620Z,15.60
2018-10-16T07:13:15.620Z,15.10
2018-10-16T07:14:15.820Z,15.40
2018-10-16T07:15:15.633Z,15.50
2018-10-16T07:16:15.632Z,15.10
2018-10-16T07:17:15.626Z,13.90
2018-10-16T07:18:15.625Z,13.80
2018-10-16T07:19:15.626Z,15.40
2018-10-16T07:20:15.822Z,14.10
2018-10-16T07:21:15.672Z,14.90
2018-10-16T07:22:15.642Z,14.30
2018-10-16T07:23:15.644Z,14.50
2018-10-16T07:24:15.614Z,15.70
2018-10-16T07:25:15.613Z,15.80
2018-10-16T07:26:15.824Z,16.30
2018-10-16T07:27:15.613Z,15.30
2018-10-16T07:28:15.611Z,16.20
2018-10-16T07:29:15.621Z,16.30
2018-10-16T07:30:15.704Z,15.70
2018-10-16T07:31:15.626Z,15.80
2018-10-16T07:32:15.622Z,15.70
2018-10-16T07:33:15.612Z,16.10
2018-10-16T07:34:15.608Z,16.90
2018-10-16T07:35:15.633Z,16.00
2018-10-16T07:36:15.608Z,16.20
2018-10-16T07:37:15.605Z,16.60
2018-10-16T07:38:15.866Z,16.40
2018-10-16T07:39:15.607Z,16.90
2018-10-16T07:40:15.613Z,16.20
2018-10-16T07:41:15.605Z,15.90
2018-10-16T07:42:15.603Z,16.10
2018-10-16T07:43:15.610Z,17.40
2018-10-16T07:44:15.805Z,16.60
2018-10-16T07:45:15.614Z,17.40
2018-10-16T07:46:15.602Z,17.30
2018-10-16T07:47:15.613Z,17.50
2018-10-16T07:48:15.623Z,17.00
2018-10-16T07:49:15.599Z,17.00
2018-10-16T07:50:15.599Z,16.40
2018-10-16T07:51:15.599Z,17.30
2018-10-16T07:52:15.609Z,17.40
2018-10-16T07:53:15.599Z,17.00
2018-10-16T07:54:15.599Z,17.80
2018-10-16T07:55:15.609Z,17.20
2018-10-16T07:56:15.607Z,16.80
2018-10-16T07:57:15.628Z,15.90
2018-10-16T07:58:15.816Z,16.00
2018-10-16T07:59:15.622Z,16.60
2018-10-16T08:00:15.608Z,16.40
2018-10-16T08:01:15.607Z,16.40
2018-10-16T08:02:15.605Z,16.50
2018-10-16T08:03:15.609Z,16.70
2018-10-16T08:04:15.594Z,16.40
2018-10-16T08:05:15.594Z,16.70
2018-10-16T08:06:15.592Z,16.90
2018-10-16T08:07:15.605Z,17.20
2018-10-16T08:08:15.613Z,17.00
2018-10-16T08:09:15.592Z,16.80
2018-10-16T08:10:15.601Z,16.80
2018-10-16T08:11:15.648Z,17.40
2018-10-16T08:12:15.606Z,17.20
2018-10-16T08:13:15.606Z,16.80
2018-10-16T08:14:15.600Z,17.60
2018-10-16T08:15:15.598Z,18.00
2018-10-16T08:16:15.822Z,18.10
2018-10-16T08:17:15.737Z,18.40
2018-10-16T08:18:15.593Z,18.00
2018-10-16T08:19:15.595Z,17.80
2018-10-16T08:20:15.592Z,17.30
2018-10-16T08:21:15.595Z,17.60
2018-10-16T08:22:15.603Z,16.70
2018-10-16T08:23:15.591Z,16.90
2018-10-16T08:24:15.591Z,15.10
2018-10-16T08:25:15.589Z,16.20
2018-10-16T08:26:15.592Z,14.80
2018-10-16T08:27:15.594Z,14.00
2018-10-16T08:28:15.595Z,13.50
2018-10-16T08:29:15.594Z,14.20
2018-10-16T08:30:15.638Z,14.60
2018-10-16T08:31:15.594Z,14.90
2018-10-16T08:32:15.602Z,14.20
2018-10-16T08:33:15.613Z,14.80
2018-10-16T08:34:15.763Z,15.00
2018-10-16T08:35:15.606Z,15.80
2018-10-16T08:36:15.699Z,15.30
2018-10-16T08:37:15.660Z,14.80
2018-10-16T08:38:15.623Z,15.60
2018-10-16T08:39:15.600Z,13.70
2018-10-16T08:40:15.604Z,14.40
2018-10-16T08:41:15.595Z,13.80
2018-10-16T08:42:15.596Z,14.20
2018-10-16T08:43:15.620Z,14.00
2018-10-16T08:44:15.618Z,14.20
2018-10-16T08:45:15.601Z,14.40
2018-10-16T08:46:15.609Z,13.90
2018-10-16T08:47:15.654Z,13.40
2018-10-16T08:48:15.613Z,13.70
2018-10-16T08:49:15.599Z,14.40
2018-10-16T08:50:15.601Z,15.00
2018-10-16T08:51:15.612Z,14.50
2018-10-16T08:52:15.615Z,14.90
2018-10-16T08:53:15.607Z,14.50
2018-10-16T08:54:15.615Z,13.80
2018-10-16T08:55:15.600Z,13.40
2018-10-16T08:56:15.619Z,12.30
2018-10-16T08:57:15.601Z,13.50
2018-10-16T08:58:15.614Z,13.20
2018-10-16T08:59:15.604Z,13.90
2018-10-16T09:00:15.628Z,13.40
2018-10-16T09:01:15.616Z,12.50
2018-10-16T09:02:15.606Z,12.80
2018-10-16T09:03:15.609Z,13.00
2018-10-16T09:04:15.607Z,12.60
2018-10-16T09:05:15.610Z,12.60
2018-10-16T09:06:15.625Z,11.90
2018-10-16T09:07:15.633Z,12.30
2018-10-16T09:08:15.612Z,12.00
2018-10-16T09:09:15.615Z,12.20
2018-10-16T09:10:15.825Z,12.20
2018-10-16T09:11:15.612Z,12.80
2018-10-16T09:12:15.614Z,13.20
2018-10-16T09:13:15.679Z,12.20
2018-10-16T09:14:15.653Z,12.20
2018-10-16T09:15:15.614Z,12.30
2018-10-16T09:16:15.617Z,12.10
2018-10-16T09:17:15.631Z,12.60
2018-10-16T09:18:15.616Z,12.70
2018-10-16T09:19:15.639Z,12.70
2018-10-16T09:20:15.629Z,12.20
2018-10-16T09:21:15.634Z,11.80
2018-10-16T09:22:15.620Z,11.10
2018-10-16T09:23:15.620Z,11.50
2018-10-16T09:24:15.636Z,11.20
2018-10-16T09:25:15.718Z,11.10
2018-10-16T09:26:15.623Z,11.10
2018-10-16T09:27:15.625Z,10.50
2018-10-16T09:28:15.640Z,11.20
2018-10-16T09:29:15.842Z,11.00
2018-10-16T09:30:15.639Z,11.30
2018-10-16T09:31:15.637Z,10.90
2018-10-16T09:32:15.640Z,11.10
2018-10-16T09:33:15.835Z,11.20
2018-10-16T09:34:15.641Z,11.10
2018-10-16T09:35:15.639Z,11.70
2018-10-16T09:36:15.630Z,11.20
2018-10-16T09:37:15.644Z,11.30
2018-10-16T09:38:15.636Z,11.80
2018-10-16T09:39:15.634Z,10.50
2018-10-16T09:40:15.634Z,10.90
2018-10-16T09:41:15.635Z,10.90
2018-10-16T09:42:15.649Z,10.70
2018-10-16T09:43:15.648Z,11.80
2018-10-16T09:44:15.642Z,11.30
2018-10-16T09:45:15.637Z,10.80
2018-10-16T09:46:15.641Z,9.90
2018-10-16T09:47:15.643Z,9.90
2018-10-16T09:48:15.654Z,10.20
2018-10-16T09:49:15.658Z,9.70
2018-10-16T09:50:15.645Z,9.50
2018-10-16T09:51:15.649Z,9.90
2018-10-16T09:52:15.663Z,10.30
2018-10-16T09:53:15.662Z,9.40
2018-10-16T09:54:15.654Z,9.40
2018-10-16T09:55:15.652Z,10.00
2018-10-16T09:56:15.711Z,9.70
2018-10-16T09:57:15.653Z,9.80
2018-10-16T09:58:15.657Z,10.10
2018-10-16T09:59:15.657Z,9.80
2018-10-16T10:00:15.659Z,10.00
2018-10-16T10:01:15.657Z,10.00
2018-10-16T10:02:15.659Z,9.40
2018-10-16T10:03:15.673Z,10.40
2018-10-16T10:04:15.661Z,10.40
2018-10-16T10:05:15.665Z,10.80
2018-10-16T10:06:15.726Z,10.10
2018-10-16T10:07:15.683Z,10.50
2018-10-16T10:08:15.677Z,10.40
2018-10-16T10:09:15.680Z,10.60
2018-10-16T10:10:15.679Z,10.60
2018-10-16T10:11:15.673Z,10.50
2018-10-16T10:12:15.684Z,11.00
2018-10-16T10:13:15.683Z,10.10
2018-10-16T10:14:15.674Z,10.50
2018-10-16T10:15:15.679Z,10.40
2018-10-16T10:16:15.681Z,10.90
2018-10-16T10:17:15.691Z,10.00
2018-10-16T10:18:15.695Z,10.10
2018-10-16T10:19:15.693Z,10.00
2018-10-16T10:20:15.687Z,10.70
2018-10-16T10:21:15.690Z,10.00
2018-10-16T10:22:15.714Z,9.70
2018-10-16T10:23:15.763Z,9.20
2018-10-16T10:24:15.690Z,9.50
2018-10-16T10:25:15.710Z,10.30
2018-10-16T10:26:15.706Z,10.50
2018-10-16T10:27:15.698Z,9.70
2018-10-16T10:28:15.694Z,9.00
2018-10-16T10:29:15.696Z,9.30
2018-10-16T10:30:15.708Z,9.10
2018-10-16T10:31:15.717Z,9.50
2018-10-16T10:32:15.699Z,8.60
2018-10-16T10:33:15.726Z,9.60
2018-10-16T10:34:15.702Z,9.40
2018-10-16T10:35:15.760Z,9.10
2018-10-16T10:36:15.757Z,8.70
2018-10-16T10:37:15.707Z,9.90
2018-10-16T10:38:15.719Z,9.50
2018-10-16T10:39:15.726Z,9.30
2018-10-16T10:40:15.715Z,9.10
2018-10-16T10:41:15.723Z,9.10
2018-10-16T10:42:15.827Z,9.20
2018-10-16T10:43:15.717Z,9.20
2018-10-16T10:44:15.921Z,9.70
2018-10-16T10:45:15.777Z,8.80
2018-10-16T10:46:15.745Z,8.70
2018-10-16T10:47:15.721Z,9.20
2018-10-16T10:48:15.729Z,8.50
2018-10-16T10:49:15.736Z,8.40
2018-10-16T10:50:15.831Z,9.20
2018-10-16T10:51:16.057Z,9.00
2018-10-16T10:52:15.746Z,9.70
2018-10-16T10:53:15.734Z,9.30
2018-10-16T10:54:15.733Z,8.90
2018-10-16T10:55:15.733Z,9.60
2018-10-16T10:56:15.736Z,9.70
2018-10-16T10:57:15.823Z,9.00
2018-10-16T10:58:15.766Z,9.20
2018-10-16T10:59:15.742Z,8.60
2018-10-16T11:00:15.745Z,8.70
2018-10-16T11:01:15.757Z,9.00
2018-10-16T11:02:15.746Z,8.80
2018-10-16T11:03:15.905Z,8.50
2018-10-16T11:04:15.754Z,8.70
2018-10-16T11:05:15.752Z,8.30
2018-10-16T11:06:15.957Z,8.20
2018-10-16T11:07:15.766Z,8.70
2018-10-16T11:08:15.773Z,8.80
2018-10-16T11:09:15.858Z,8.80
2018-10-16T11:10:15.872Z,9.20
2018-10-16T11:11:15.762Z,8.70
2018-10-16T11:12:15.762Z,8.60
2018-10-16T11:13:15.782Z,8.30
2018-10-16T11:14:15.769Z,7.90
2018-10-16T11:15:15.875Z,8.20
2018-10-16T11:16:15.771Z,7.80
2018-10-16T11:17:15.771Z,8.70
2018-10-16T11:18:15.776Z,8.60
2018-10-16T11:19:15.792Z,7.90
2018-10-16T11:20:15.775Z,8.20
2018-10-16T11:21:15.894Z,7.90
2018-10-16T11:22:15.782Z,7.60
2018-10-16T11:23:15.783Z,7.70
2018-10-16T11:24:15.785Z,7.60
2018-10-16T11:25:15.788Z,8.10
2018-10-16T11:26:15.786Z,8.10
2018-10-16T11:27:15.816Z,7.60
2018-10-16T11:28:15.791Z,7.70
2018-10-16T11:29:15.818Z,7.60
2018-10-16T11:30:15.873Z,7.90
2018-10-16T11:31:15.808Z,8.40
2018-10-16T11:32:15.815Z,8.30
2018-10-16T11:33:15.905Z,8.10
2018-10-16T11:34:15.813Z,7.80
2018-10-16T11:35:15.813Z,8.10
2018-10-16T11:36:15.817Z,8.30
2018-10-16T11:37:15.807Z,8.20
2018-10-16T11:38:15.821Z,7.70
2018-10-16T11:39:16.026Z,7.40
2018-10-16T11:40:15.824Z,8.00
2018-10-16T11:41:15.817Z,7.60
2018-10-16T11:42:15.828Z,7.50
2018-10-16T11:43:15.844Z,7.70
2018-10-16T11:44:15.835Z,7.90
2018-10-16T11:45:15.894Z,8.50
2018-10-16T11:46:15.837Z,7.70
2018-10-16T11:47:15.845Z,8.40
2018-10-16T11:48:16.057Z,8.70
2018-10-16T11:49:15.836Z,8.00
2018-10-16T11:50:15.935Z,7.80
2018-10-16T11:51:15.846Z,7.80
2018-10-16T11:52:15.938Z,8.20
2018-10-16T11:53:15.838Z,7.60
2018-10-16T11:54:15.847Z,8.20
2018-10-16T11:55:15.843Z,8.30
2018-10-16T11:56:15.963Z,7.90
2018-10-16T11:57:15.848Z,8.00
2018-10-16T11:58:15.865Z,7.90
2018-10-16T11:59:15.963Z,8.30
2018-10-16T12:00:15.867Z,8.00
2018-10-16T12:01:15.866Z,7.50
2018-10-16T12:02:15.959Z,7.70
2018-10-16T12:03:15.863Z,7.40
2018-10-16T12:04:15.868Z,7.80
2018-10-16T12:05:15.871Z,7.80
2018-10-16T12:06:15.966Z,7.60
2018-10-16T12:07:16.027Z,7.10
2018-10-16T12:08:15.937Z,7.10
2018-10-16T12:09:15.884Z,7.20
2018-10-16T12:10:15.884Z,7.70
2018-10-16T12:11:15.884Z,8.20
2018-10-16T12:12:15.881Z,7.90
2018-10-16T12:13:15.975Z,7.20
2018-10-16T12:14:15.922Z,7.40
2018-10-16T12:15:15.898Z,7.10
2018-10-16T12:16:15.889Z,7.10
2018-10-16T12:17:15.889Z,7.50
2018-10-16T12:18:16.102Z,6.90
2018-10-16T12:19:16.042Z,7.70
2018-10-16T12:20:15.915Z,8.20
2018-10-16T12:21:15.991Z,7.90
2018-10-16T12:22:15.917Z,7.80
2018-10-16T12:23:15.902Z,7.10
2018-10-16T12:24:15.945Z,7.70
2018-10-16T12:25:15.961Z,7.60
2018-10-16T12:26:15.912Z,7.30
2018-10-16T12:27:15.995Z,7.50
2018-10-16T12:28:15.917Z,7.40
2018-10-16T12:29:15.917Z,7.80
2018-10-16T12:30:15.922Z,7.10
2018-10-16T12:31:15.988Z,7.50
2018-10-16T12:32:15.996Z,7.70
2018-10-16T12:33:16.033Z,7.40
2018-10-16T12:34:15.928Z,7.20
2018-10-16T12:35:15.956Z,7.50
2018-10-16T12:36:15.943Z,7.20
2018-10-16T12:37:15.936Z,7.30
2018-10-16T12:38:16.000Z,7.40
2018-10-16T12:39:16.026Z,7.70
2018-10-16T12:40:16.005Z,7.10
2018-10-16T12:41:16.041Z,7.30
2018-10-16T12:42:16.000Z,8.10
2018-10-16T12:43:15.982Z,7.20
2018-10-16T12:44:15.968Z,7.20
2018-10-16T12:45:15.989Z,7.40
2018-10-16T12:46:16.088Z,6.90
2018-10-16T12:47:15.971Z,7.20
2018-10-16T12:48:16.037Z,7.00
2018-10-16T12:49:15.970Z,6.90
2018-10-16T12:50:16.031Z,6.50
2018-10-16T12:51:16.034Z,6.80
2018-10-16T12:52:15.970Z,7.50
2018-10-16T12:53:16.051Z,7.20
2018-10-16T12:54:16.055Z,7.00
2018-10-16T12:55:15.977Z,7.30
2018-10-16T12:56:16.080Z,6.80
2018-10-16T12:57:16.065Z,7.30
2018-10-16T12:58:15.983Z,6.40
2018-10-16T12:59:15.986Z,6.40